createdAt,value
2022-12-01T00:01:07.759Z,38.08
2022-12-01T00:03:34.723Z,38.12
2022-12-01T00:06:06.846Z,38.33
2022-12-01T00:08:34.348Z,37.76
2022-12-01T00:11:12.184Z,38.39
2022-12-01T00:13:38.869Z,38.25
2022-12-01T00:16:13.475Z,38.18
2022-12-01T00:18:40.395Z,38.00
2022-12-01T00:21:13.282Z,37.98
2022-12-01T00:23:43.692Z,38.24
2022-12-01T00:26:10.296Z,38.34
2022-12-01T00:28:36.879Z,38.11
2022-12-01T00:31:08.147Z,38.54
2022-12-01T00:33:34.761Z,38.35
2022-12-01T00:36:02.363Z,38.48
2022-12-01T00:38:29.529Z,38.24
2022-12-01T00:40:56.436Z,38.33
2022-12-01T00:43:24.324Z,38.47
2022-12-01T00:45:51.864Z,38.16
2022-12-01T00:48:18.488Z,37.83
2022-12-01T00:50:45.635Z,38.00
2022-12-01T00:53:12.274Z,38.16
2022-12-01T00:55:40.214Z,38.40
2022-12-01T00:58:07.584Z,38.45
2022-12-01T01:00:34.469Z,38.20
2022-12-01T01:03:01.439Z,38.35
2022-12-01T01:05:28.178Z,38.41
2022-12-01T01:07:55.064Z,38.44
2022-12-01T01:10:22.759Z,37.97
2022-12-01T01:12:49.516Z,38.34
2022-12-01T01:15:16.102Z,38.38
2022-12-01T01:17:42.686Z,38.19
2022-12-01T01:20:09.903Z,37.96
2022-12-01T01:22:36.499Z,38.46
2022-12-01T01:25:03.204Z,38.59
2022-12-01T01:27:29.780Z,38.53
2022-12-01T01:29:56.381Z,38.22
2022-12-01T01:32:22.971Z,38.61
2022-12-01T01:34:49.577Z,38.38
2022-12-01T01:37:16.153Z,38.74
2022-12-01T01:39:42.749Z,38.19
2022-12-01T01:42:13.359Z,38.36
2022-12-01T01:44:46.010Z,38.23
2022-12-01T01:47:13.477Z,38.25
2022-12-01T01:49:41.331Z,38.21
2022-12-01T01:52:08.311Z,38.52
2022-12-01T01:54:39.944Z,38.17
2022-12-01T01:57:09.862Z,38.67
2022-12-01T01:59:43.794Z,38.32
2022-12-01T02:02:11.981Z,38.11
2022-12-01T02:04:41.874Z,38.27
2022-12-01T02:07:10.013Z,38.38
2022-12-01T02:09:36.639Z,38.08
2022-12-01T02:12:24.833Z,38.39
2022-12-01T02:15:04.900Z,38.39
2022-12-01T02:17:54.721Z,37.97
2022-12-01T02:20:40.062Z,38.16
2022-12-01T02:23:38.346Z,38.35
2022-12-01T02:26:29.831Z,38.07
2022-12-01T02:29:23.225Z,38.41
2022-12-01T02:32:17.214Z,38.22
2022-12-01T02:35:07.792Z,38.28
2022-12-01T02:37:44.390Z,38.38
2022-12-01T02:40:33.832Z,38.36
2022-12-01T02:43:02.926Z,38.10
2022-12-01T02:45:45.047Z,38.17
2022-12-01T02:48:17.862Z,37.75
2022-12-01T02:50:46.385Z,37.88
2022-12-01T02:53:17.325Z,37.88
2022-12-01T02:56:07.173Z,38.13
2022-12-01T02:58:33.765Z,38.25
2022-12-01T03:01:52.583Z,38.04
2022-12-01T03:04:39.167Z,38.39
2022-12-01T03:07:20.880Z,38.21
2022-12-01T03:09:56.313Z,38.10
2022-12-01T03:12:43.058Z,38.18
2022-12-01T03:15:13.153Z,38.17
2022-12-01T03:17:58.190Z,38.02
2022-12-01T03:20:39.346Z,38.07
2022-12-01T03:23:16.461Z,38.33
2022-12-01T03:25:48.891Z,37.99
2022-12-01T03:28:21.828Z,38.08
2022-12-01T03:30:52.544Z,37.60
2022-12-01T03:33:29.022Z,37.94
2022-12-01T03:36:05.517Z,38.16
2022-12-01T03:38:36.224Z,38.35
2022-12-01T03:41:09.510Z,38.35
2022-12-01T03:43:41.492Z,37.63
2022-12-01T03:46:17.816Z,38.07
2022-12-01T03:48:44.611Z,38.02
2022-12-01T03:51:48.710Z,38.35
2022-12-01T03:54:24.188Z,37.75
2022-12-01T03:56:59.587Z,38.38
2022-12-01T03:59:28.259Z,38.21
2022-12-01T04:01:55.160Z,38.10
2022-12-01T04:04:21.927Z,38.25
2022-12-01T04:06:50.984Z,38.16
2022-12-01T04:09:17.909Z,37.91
2022-12-01T04:12:03.344Z,38.36
2022-12-01T04:14:30.505Z,38.35
2022-12-01T04:16:57.124Z,37.93
2022-12-01T04:19:23.803Z,38.16
2022-12-01T04:21:50.385Z,37.99
2022-12-01T04:24:17.085Z,38.18
2022-12-01T04:26:45.966Z,37.89
2022-12-01T04:29:13.392Z,38.13
2022-12-01T04:31:40.588Z,37.95
2022-12-01T04:34:08.006Z,38.24
2022-12-01T04:36:35.473Z,37.96
2022-12-01T04:39:02.311Z,38.14
2022-12-01T04:41:28.972Z,37.87
2022-12-01T04:43:55.958Z,37.91
2022-12-01T04:46:23.731Z,37.79
2022-12-01T04:48:50.880Z,37.67
2022-12-01T04:51:17.730Z,38.07
2022-12-01T04:53:44.325Z,37.46
2022-12-01T04:56:10.916Z,37.85
2022-12-01T04:58:37.937Z,37.79
2022-12-01T05:01:07.215Z,38.07
2022-12-01T05:03:38.293Z,37.79
2022-12-01T05:06:11.056Z,37.66
2022-12-01T05:08:37.707Z,37.82
2022-12-01T05:11:07.559Z,37.75
2022-12-01T05:13:36.746Z,38.17
2022-12-01T05:16:24.818Z,37.72
2022-12-01T05:19:17.128Z,37.44
2022-12-01T05:21:45.770Z,37.87
2022-12-01T05:24:14.028Z,38.05
2022-12-01T05:26:41.875Z,37.72
2022-12-01T05:29:10.492Z,37.92
2022-12-01T05:31:37.236Z,37.66
2022-12-01T05:34:03.933Z,37.74
2022-12-01T05:36:30.537Z,37.73
2022-12-01T05:38:57.196Z,37.84
2022-12-01T05:41:23.796Z,37.93
2022-12-01T05:43:50.377Z,37.53
2022-12-01T05:46:16.983Z,37.78
2022-12-01T05:48:43.649Z,38.13
2022-12-01T05:51:16.033Z,37.32
2022-12-01T05:53:43.673Z,37.88
2022-12-01T05:56:10.344Z,37.39
2022-12-01T05:58:37.161Z,37.98
2022-12-01T06:01:04.279Z,38.10
2022-12-01T06:03:30.899Z,37.80
2022-12-01T06:05:57.591Z,37.68
2022-12-01T06:08:24.246Z,37.94
2022-12-01T06:10:50.853Z,38.38
2022-12-01T06:13:17.531Z,37.91
2022-12-01T06:15:44.165Z,38.09
2022-12-01T06:18:10.759Z,38.49
2022-12-01T06:20:37.412Z,38.30
2022-12-01T06:23:04.105Z,38.17
2022-12-01T06:25:30.744Z,38.85
2022-12-01T06:27:58.577Z,38.66
2022-12-01T06:30:26.284Z,38.63
2022-12-01T06:32:52.881Z,38.35
2022-12-01T06:35:19.772Z,38.68
2022-12-01T06:37:46.378Z,38.53
2022-12-01T06:40:13.221Z,38.46
2022-12-01T06:42:39.869Z,38.65
2022-12-01T06:45:06.940Z,38.22
2022-12-01T06:47:33.558Z,38.23
2022-12-01T06:50:00.408Z,38.45
2022-12-01T06:52:26.990Z,38.58
2022-12-01T06:54:53.598Z,38.17
2022-12-01T06:57:20.426Z,38.74
2022-12-01T06:59:47.828Z,38.83
2022-12-01T07:02:15.315Z,38.44
2022-12-01T07:04:41.956Z,38.45
2022-12-01T07:07:08.616Z,38.25
2022-12-01T07:09:35.525Z,38.54
2022-12-01T07:12:02.133Z,38.64
2022-12-01T07:14:28.991Z,38.19
2022-12-01T07:16:55.634Z,37.91
2022-12-01T07:19:22.358Z,38.29
2022-12-01T07:21:49.093Z,38.28
2022-12-01T07:24:16.234Z,37.88
2022-12-01T07:26:43.349Z,38.50
2022-12-01T07:29:10.687Z,37.91
2022-12-01T07:31:38.502Z,37.77
2022-12-01T07:34:05.966Z,38.11
2022-12-01T07:36:32.900Z,38.13
2022-12-01T07:39:00.694Z,37.94
2022-12-01T07:41:27.261Z,38.00
2022-12-01T07:43:55.201Z,38.12
2022-12-01T07:46:24.718Z,38.24
2022-12-01T07:48:55.994Z,38.07
2022-12-01T07:51:24.331Z,38.04
2022-12-01T07:53:52.047Z,37.94
2022-12-01T07:56:20.347Z,37.67
2022-12-01T07:58:47.464Z,38.12
2022-12-01T08:01:17.289Z,37.81
2022-12-01T08:03:44.619Z,37.52
2022-12-01T08:06:12.002Z,37.70
2022-12-01T08:08:39.927Z,37.75
2022-12-01T08:11:13.320Z,38.19
2022-12-01T08:13:41.230Z,38.17
2022-12-01T08:16:13.077Z,37.79
2022-12-01T08:18:41.072Z,37.96
2022-12-01T08:21:10.159Z,37.54
2022-12-01T08:23:36.733Z,37.94
2022-12-01T08:26:06.019Z,38.04
2022-12-01T08:28:35.320Z,37.93
2022-12-01T08:31:38.363Z,37.78
2022-12-01T08:34:06.772Z,38.04
2022-12-01T08:36:34.828Z,37.73
2022-12-01T08:39:01.806Z,37.70
2022-12-01T08:41:28.773Z,37.77
2022-12-01T08:43:58.392Z,37.91
2022-12-01T08:46:28.936Z,37.45
2022-12-01T08:48:57.382Z,37.50
2022-12-01T08:51:24.914Z,38.18
2022-12-01T08:53:51.878Z,37.73
2022-12-01T08:56:34.882Z,37.58
2022-12-01T08:59:01.697Z,37.47
2022-12-01T09:01:28.973Z,38.23
2022-12-01T09:04:06.503Z,37.93
2022-12-01T09:06:38.389Z,37.40
2022-12-01T09:09:05.533Z,37.92
2022-12-01T09:11:32.212Z,38.03
2022-12-01T09:13:59.681Z,37.62
2022-12-01T09:16:26.464Z,37.56
2022-12-01T09:18:53.063Z,37.91
2022-12-01T09:21:25.999Z,37.75
2022-12-01T09:23:53.357Z,37.75
2022-12-01T09:26:20.319Z,37.38
2022-12-01T09:28:49.021Z,37.64
2022-12-01T09:31:17.188Z,37.68
2022-12-01T09:33:44.685Z,38.09
2022-12-01T09:36:11.801Z,37.60
2022-12-01T09:38:39.111Z,37.63
2022-12-01T09:41:11.997Z,37.92
2022-12-01T09:43:48.164Z,37.63
2022-12-01T09:46:20.927Z,37.79
2022-12-01T09:48:51.335Z,38.06
2022-12-01T09:51:27.634Z,37.45
2022-12-01T09:53:57.061Z,37.60
2022-12-01T09:56:32.473Z,37.88
2022-12-01T09:59:02.396Z,38.06
2022-12-01T10:01:35.655Z,37.79
2022-12-01T10:04:29.862Z,37.97
2022-12-01T10:06:56.598Z,37.96
2022-12-01T10:09:50.320Z,37.75
2022-12-01T10:12:31.098Z,37.86
2022-12-01T10:15:27.529Z,37.59
2022-12-01T10:18:20.258Z,37.38
2022-12-01T10:20:50.500Z,37.23
2022-12-01T10:23:40.981Z,37.32
2022-12-01T10:26:16.155Z,37.20
2022-12-01T10:29:01.139Z,37.67
2022-12-01T10:31:48.817Z,37.43
2022-12-01T10:34:32.123Z,37.02
2022-12-01T10:36:59.250Z,37.37
2022-12-01T10:39:36.828Z,37.40
2022-12-01T10:42:36.057Z,37.73
2022-12-01T10:45:06.101Z,37.09
2022-12-01T10:47:32.988Z,37.17
2022-12-01T10:49:59.815Z,37.21
2022-12-01T10:52:37.394Z,37.17
2022-12-01T10:55:24.000Z,37.32
2022-12-01T10:57:52.484Z,37.47
2022-12-01T11:00:57.948Z,37.22
2022-12-01T11:03:22.317Z,37.25
2022-12-01T11:05:58.191Z,37.20
2022-12-01T11:08:53.012Z,37.05
2022-12-01T11:11:28.668Z,37.63
2022-12-01T11:13:56.966Z,37.15
2022-12-01T11:16:44.654Z,37.57
2022-12-01T11:19:14.621Z,37.52
2022-12-01T11:21:50.107Z,37.14
2022-12-01T11:24:42.796Z,37.33
2022-12-01T11:27:18.327Z,37.29
2022-12-01T11:29:49.100Z,37.38
2022-12-01T11:32:25.198Z,37.72
2022-12-01T11:34:54.733Z,37.45
2022-12-01T11:37:25.626Z,37.88
2022-12-01T11:39:53.106Z,37.21
2022-12-01T11:42:26.786Z,37.39
2022-12-01T11:45:09.051Z,37.56
2022-12-01T11:47:35.692Z,37.61
2022-12-01T11:50:22.817Z,37.57
2022-12-01T11:52:49.455Z,37.51
2022-12-01T11:55:15.985Z,37.44
2022-12-01T11:57:44.671Z,37.25
2022-12-01T12:00:16.489Z,37.21
2022-12-01T12:02:43.084Z,37.44
2022-12-01T12:05:18.549Z,37.06
2022-12-01T12:08:15.021Z,37.44
2022-12-01T12:11:13.996Z,37.26
2022-12-01T12:14:02.550Z,37.37
2022-12-01T12:16:55.531Z,37.25
2022-12-01T12:19:52.481Z,37.04
2022-12-01T12:22:42.157Z,37.24
2022-12-01T12:25:35.004Z,37.43
2022-12-01T12:28:23.312Z,37.38
2022-12-01T12:31:03.044Z,37.80
2022-12-01T12:33:55.697Z,37.57
2022-12-01T12:36:58.056Z,36.92
2022-12-01T12:39:30.746Z,37.64
2022-12-01T12:41:58.696Z,37.16
2022-12-01T12:44:37.259Z,37.03
2022-12-01T12:47:14.667Z,37.62
2022-12-01T12:49:48.295Z,37.06
2022-12-01T12:52:23.441Z,37.48
2022-12-01T12:55:28.160Z,37.26
2022-12-01T12:58:13.139Z,37.04
2022-12-01T13:00:46.796Z,37.14
2022-12-01T13:03:29.234Z,37.35
2022-12-01T13:06:18.484Z,37.60
2022-12-01T13:08:55.530Z,36.90
2022-12-01T13:11:29.985Z,36.76
2022-12-01T13:14:06.560Z,37.30
2022-12-01T13:16:41.755Z,37.21
2022-12-01T13:19:30.877Z,37.13
2022-12-01T13:21:59.244Z,36.64
2022-12-01T13:24:29.701Z,36.83
2022-12-01T13:27:07.788Z,36.86
2022-12-01T13:29:43.704Z,36.97
2022-12-01T13:32:31.479Z,37.25
2022-12-01T13:34:59.433Z,36.74
2022-12-01T13:37:37.809Z,37.04
2022-12-01T13:40:22.533Z,36.81
2022-12-01T13:43:10.269Z,37.06
2022-12-01T13:45:40.042Z,37.15
2022-12-01T13:48:25.549Z,37.08
2022-12-01T13:51:03.775Z,36.75
2022-12-01T13:53:36.330Z,37.28
2022-12-01T13:56:08.815Z,37.13
2022-12-01T13:58:35.330Z,36.67
2022-12-01T14:01:20.592Z,36.63
2022-12-01T14:04:03.330Z,37.14
2022-12-01T14:06:35.888Z,37.07
2022-12-01T14:09:28.618Z,36.99
2022-12-01T14:12:04.199Z,36.87
2022-12-01T14:14:40.139Z,36.80
2022-12-01T14:17:22.582Z,36.90
2022-12-01T14:19:54.099Z,37.40
2022-12-01T14:22:37.381Z,36.81
2022-12-01T14:25:21.093Z,37.00
2022-12-01T14:27:51.274Z,36.90
2022-12-01T14:30:44.995Z,36.87
2022-12-01T14:34:02.659Z,37.18
2022-12-01T14:36:36.054Z,37.06
2022-12-01T14:39:13.194Z,36.94
2022-12-01T14:41:51.125Z,36.94
2022-12-01T14:44:29.917Z,37.34
2022-12-01T14:47:06.807Z,37.53
2022-12-01T14:50:01.172Z,37.21
2022-12-01T14:52:38.543Z,37.09
2022-12-01T14:55:14.844Z,37.10
2022-12-01T14:57:46.151Z,37.02
2022-12-01T15:00:14.617Z,37.19
2022-12-01T15:03:07.934Z,36.97
2022-12-01T15:05:40.459Z,36.82
2022-12-01T15:11:22.709Z,36.86
2022-12-01T15:13:54.813Z,37.37
2022-12-01T15:16:26.856Z,37.12
2022-12-01T15:18:54.129Z,37.30
2022-12-01T15:21:30.575Z,36.86
2022-12-01T15:23:59.862Z,37.21
2022-12-01T15:26:32.652Z,37.31
2022-12-01T15:29:15.604Z,37.11
2022-12-01T15:31:45.291Z,37.33
2022-12-01T15:34:17.062Z,37.22
2022-12-01T15:36:44.780Z,36.96
2022-12-01T15:39:35.279Z,37.12
2022-12-01T15:42:03.116Z,37.41
2022-12-01T15:44:37.164Z,37.08
2022-12-01T15:47:36.125Z,37.10
2022-12-01T15:50:05.589Z,36.88
2022-12-01T15:52:43.984Z,37.29
2022-12-01T15:55:29.882Z,37.17
2022-12-01T15:57:57.390Z,36.90
2022-12-01T16:00:24.613Z,36.72
2022-12-01T16:02:54.663Z,37.41
2022-12-01T16:05:30.398Z,37.21
2022-12-01T16:08:13.939Z,37.18
2022-12-01T16:10:40.792Z,37.00
2022-12-01T16:13:35.203Z,36.91
2022-12-01T16:16:30.736Z,37.16
2022-12-01T16:19:04.154Z,37.23
2022-12-01T16:21:43.057Z,37.23
2022-12-01T16:24:15.732Z,36.92
2022-12-01T16:27:23.671Z,36.72
2022-12-01T16:29:57.380Z,37.24
2022-12-01T16:32:33.516Z,37.12
2022-12-01T16:35:00.457Z,37.15
2022-12-01T16:37:27.545Z,37.59
2022-12-01T16:39:54.217Z,36.86
2022-12-01T16:42:21.978Z,36.99
2022-12-01T16:44:50.545Z,37.28
2022-12-01T16:47:25.408Z,37.15
2022-12-01T16:49:52.896Z,37.25
2022-12-01T16:52:43.833Z,37.28
2022-12-01T16:55:42.425Z,37.45
2022-12-01T16:58:09.423Z,37.21
2022-12-01T17:00:36.061Z,37.12
2022-12-01T17:03:02.987Z,37.11
2022-12-01T17:05:29.765Z,37.00
2022-12-01T17:07:56.527Z,36.83
2022-12-01T17:10:24.044Z,37.26
2022-12-01T17:12:51.280Z,37.38
2022-12-01T17:15:18.031Z,37.05
2022-12-01T17:17:44.653Z,37.44
2022-12-01T17:20:11.835Z,37.43
2022-12-01T17:22:38.500Z,37.21
2022-12-01T17:25:05.715Z,37.27
2022-12-01T17:27:32.753Z,37.21
2022-12-01T17:30:00.179Z,37.36
2022-12-01T17:32:27.851Z,37.21
2022-12-01T17:34:54.915Z,37.63
2022-12-01T17:37:21.647Z,37.52
2022-12-01T17:39:49.592Z,37.29
2022-12-01T17:42:17.121Z,37.27
2022-12-01T17:44:43.730Z,37.18
2022-12-01T17:47:10.396Z,37.32
2022-12-01T17:49:37.336Z,37.26
2022-12-01T17:52:08.275Z,37.81
2022-12-01T17:54:34.903Z,37.27
2022-12-01T17:57:01.488Z,37.89
2022-12-01T17:59:28.138Z,37.80
2022-12-01T18:01:54.807Z,37.47
2022-12-01T18:04:21.804Z,37.69
2022-12-01T18:06:53.707Z,37.49
2022-12-01T18:09:21.747Z,38.05
2022-12-01T18:11:48.454Z,37.44
2022-12-01T18:14:17.794Z,37.50
2022-12-01T18:16:45.614Z,37.75
2022-12-01T18:19:12.572Z,37.48
2022-12-01T18:21:39.804Z,37.85
2022-12-01T18:24:08.877Z,37.66
2022-12-01T18:26:38.081Z,37.95
2022-12-01T18:29:16.634Z,37.99
2022-12-01T18:31:43.419Z,37.28
2022-12-01T18:34:11.205Z,37.30
2022-12-01T18:36:40.719Z,37.97
2022-12-01T18:39:09.170Z,37.79
2022-12-01T18:41:36.671Z,37.83
2022-12-01T18:44:04.191Z,37.61
2022-12-01T18:46:31.010Z,37.42
2022-12-01T18:49:02.814Z,37.66
2022-12-01T18:51:31.205Z,37.57
2022-12-01T18:53:59.165Z,37.37
2022-12-01T18:56:27.220Z,37.42
2022-12-01T18:58:58.553Z,37.29
2022-12-01T19:01:37.660Z,37.54
2022-12-01T19:04:05.974Z,37.58
2022-12-01T19:06:34.274Z,37.65
2022-12-01T19:09:03.752Z,36.98
2022-12-01T19:11:30.427Z,37.32
2022-12-01T19:13:57.592Z,36.88
2022-12-01T19:16:24.451Z,37.08
2022-12-01T19:18:51.123Z,37.52
2022-12-01T19:21:19.146Z,36.81
2022-12-01T19:23:47.089Z,37.17
2022-12-01T19:26:17.463Z,37.03
2022-12-01T19:28:45.745Z,37.06
2022-12-01T19:31:15.634Z,36.88
2022-12-01T19:33:42.270Z,37.10
2022-12-01T19:36:11.368Z,37.42
2022-12-01T19:38:38.431Z,37.27
2022-12-01T19:41:06.019Z,37.33
2022-12-01T19:43:36.522Z,37.27
2022-12-01T19:46:18.243Z,37.03
2022-12-01T19:48:45.459Z,37.42
2022-12-01T19:51:20.287Z,37.04
2022-12-01T19:53:47.842Z,37.04
2022-12-01T19:56:14.537Z,37.35
2022-12-01T19:58:41.271Z,37.55
2022-12-01T20:01:10.820Z,37.40
2022-12-01T20:03:38.208Z,37.06
2022-12-01T20:06:07.040Z,37.54
2022-12-01T20:08:36.073Z,37.29
2022-12-01T20:11:04.374Z,37.37
2022-12-01T20:13:32.568Z,37.33
2022-12-01T20:16:08.075Z,37.26
2022-12-01T20:18:35.927Z,37.23
2022-12-01T20:21:28.014Z,37.13
2022-12-01T20:24:00.438Z,36.79
2022-12-01T20:26:30.915Z,37.19
2022-12-01T20:29:04.201Z,36.94
2022-12-01T20:31:32.728Z,37.06
2022-12-01T20:34:02.191Z,36.74
2022-12-01T20:36:28.979Z,37.44
2022-12-01T20:38:55.704Z,37.40
2022-12-01T20:41:22.338Z,36.98
2022-12-01T20:43:48.943Z,37.27
2022-12-01T20:46:16.125Z,36.96
2022-12-01T20:48:43.122Z,37.04
2022-12-01T20:51:12.485Z,37.11
2022-12-01T20:53:39.303Z,37.14
2022-12-01T20:56:08.566Z,37.11
2022-12-01T20:58:37.638Z,37.25
2022-12-01T21:01:17.199Z,37.00
2022-12-01T21:03:45.654Z,37.39
2022-12-01T21:06:14.158Z,37.23
2022-12-01T21:08:43.169Z,37.20
2022-12-01T21:12:02.168Z,37.29
2022-12-01T21:14:43.591Z,37.65
2022-12-01T21:17:28.394Z,37.26
2022-12-01T21:20:32.763Z,37.70
2022-12-01T21:23:05.976Z,37.34
2022-12-01T21:25:33.519Z,37.49
2022-12-01T21:28:03.622Z,37.46
2022-12-01T21:30:30.529Z,37.20
2022-12-01T21:33:36.801Z,37.12
2022-12-01T21:36:14.007Z,37.55
2022-12-01T21:38:42.753Z,37.73
2022-12-01T21:41:27.257Z,37.39
2022-12-01T21:43:55.627Z,37.41
2022-12-01T21:46:22.625Z,37.55
2022-12-01T21:48:50.079Z,37.30
2022-12-01T21:51:20.665Z,36.98
2022-12-01T21:53:48.551Z,37.48
2022-12-01T21:56:21.285Z,37.00
2022-12-01T21:58:48.676Z,37.30
2022-12-01T22:01:23.216Z,37.29
2022-12-01T22:03:49.964Z,37.29
2022-12-01T22:06:30.771Z,36.95
2022-12-01T22:09:11.947Z,37.36
2022-12-01T22:11:38.556Z,37.53
2022-12-01T22:14:16.034Z,37.42
2022-12-01T22:17:03.912Z,37.02
2022-12-01T22:19:33.342Z,37.24
2022-12-01T22:22:09.129Z,37.00
2022-12-01T22:24:42.716Z,36.91
2022-12-01T22:27:18.169Z,36.99
2022-12-01T22:29:47.585Z,37.13
2022-12-01T22:32:14.118Z,36.96
2022-12-01T22:34:51.355Z,37.36
2022-12-01T22:37:24.190Z,36.93
2022-12-01T22:39:55.154Z,36.70
2022-12-01T22:42:35.403Z,36.93
2022-12-01T22:45:22.452Z,36.78
2022-12-01T22:47:49.109Z,37.42
2022-12-01T22:50:31.033Z,37.08
2022-12-01T22:53:01.927Z,37.11
2022-12-01T22:55:28.493Z,37.58
2022-12-01T22:57:55.079Z,36.99
2022-12-01T23:00:23.213Z,37.30
2022-12-01T23:02:52.443Z,37.37
2022-12-01T23:05:25.331Z,36.87
2022-12-01T23:07:52.942Z,37.11
2022-12-01T23:10:25.310Z,36.87
2022-12-01T23:12:54.931Z,37.13
2022-12-01T23:15:31.371Z,36.80
2022-12-01T23:18:32.046Z,37.25
2022-12-01T23:21:01.008Z,36.93
2022-12-01T23:23:33.358Z,37.06
2022-12-01T23:26:03.365Z,36.92
2022-12-01T23:28:30.507Z,36.74
2022-12-01T23:30:59.699Z,37.29
2022-12-01T23:33:29.434Z,37.04
2022-12-01T23:36:00.087Z,36.87
2022-12-01T23:38:36.139Z,37.21
2022-12-01T23:41:07.014Z,37.11
2022-12-01T23:43:42.964Z,36.94
2022-12-01T23:46:16.797Z,36.72
2022-12-01T23:48:48.907Z,37.49
2022-12-01T23:51:23.379Z,37.26
2022-12-01T23:53:52.089Z,36.92
2022-12-01T23:56:24.397Z,37.41
2022-12-01T23:58:52.619Z,37.17
